createdAt,value
2019-04-21T00:00:35.679Z,7.79
2019-04-21T00:03:10.024Z,7.51
2019-04-21T00:05:57.140Z,7.33
2019-04-21T00:08:35.337Z,7.38
2019-04-21T00:11:06.233Z,7.39
2019-04-21T00:13:27.977Z,7.37
2019-04-21T00:15:52.057Z,7.33
2019-04-21T00:18:49.874Z,7.14
2019-04-21T00:21:22.275Z,7.12
2019-04-21T00:24:00.361Z,7.21
2019-04-21T00:26:33.274Z,7.19
2019-04-21T00:29:09.577Z,6.94
2019-04-21T00:31:35.304Z,6.77
2019-04-21T00:33:51.958Z,6.59
2019-04-21T00:36:29.254Z,6.45
2019-04-21T00:39:20.698Z,6.41
2019-04-21T00:41:50.888Z,6.61
2019-04-21T00:44:13.143Z,6.77
2019-04-21T00:46:44.912Z,6.75
2019-04-21T00:49:18.151Z,6.74
2019-04-21T00:52:25.119Z,6.64
2019-04-21T00:54:49.819Z,6.48
2019-04-21T00:57:18.099Z,6.49
2019-04-21T00:59:57.056Z,6.67
2019-04-21T01:02:20.215Z,6.72
2019-04-21T01:05:02.014Z,6.53
2019-04-21T01:07:20.764Z,6.34
2019-04-21T01:09:48.807Z,6.13
2019-04-21T01:12:29.811Z,6.05
2019-04-21T01:15:04.915Z,5.94
2019-04-21T01:17:30.843Z,5.88
2019-04-21T01:20:00.080Z,5.76
2019-04-21T01:22:13.388Z,5.86
2019-04-21T01:24:47.256Z,5.80
2019-04-21T01:27:25.070Z,5.63
2019-04-21T01:30:14.322Z,5.67
2019-04-21T01:32:42.603Z,5.73
2019-04-21T01:35:10.173Z,5.79
2019-04-21T01:37:43.816Z,5.64
2019-04-21T01:40:22.631Z,5.62
2019-04-21T01:42:45.835Z,5.54
2019-04-21T01:45:20.042Z,5.34
2019-04-21T01:47:49.040Z,5.25
2019-04-21T01:50:20.072Z,5.40
2019-04-21T01:52:57.639Z,5.43
2019-04-21T01:55:54.139Z,5.26
2019-04-21T01:58:18.250Z,5.26
2019-04-21T02:01:03.573Z,5.16
2019-04-21T02:08:41.843Z,5.24
2019-04-21T02:11:15.640Z,5.19
2019-04-21T02:13:53.423Z,5.08
2019-04-21T02:16:19.030Z,5.09
2019-04-21T02:18:52.993Z,5.12
2019-04-21T02:21:17.793Z,4.99
2019-04-21T02:24:00.527Z,4.98
2019-04-21T02:26:28.443Z,4.95
2019-04-21T02:29:00.115Z,4.76
2019-04-21T02:31:55.419Z,4.70
2019-04-21T02:34:06.497Z,4.77
2019-04-21T02:39:18.052Z,4.88
2019-04-21T02:41:50.697Z,4.79
2019-04-21T02:44:16.671Z,4.61
2019-04-21T02:46:50.396Z,4.53
2019-04-21T02:49:45.155Z,4.61
2019-04-21T02:51:58.554Z,4.58
2019-04-21T02:57:01.730Z,4.18
2019-04-21T02:59:33.101Z,4.09
2019-04-21T03:02:16.295Z,4.10
2019-04-21T03:07:25.465Z,4.39
2019-04-21T03:09:53.246Z,4.34
2019-04-21T03:12:22.650Z,4.33
2019-04-21T03:15:06.362Z,4.31
2019-04-21T03:17:46.080Z,4.31
2019-04-21T03:22:32.294Z,4.05
2019-04-21T03:25:25.306Z,3.95
2019-04-21T03:27:50.286Z,4.02
2019-04-21T03:30:29.285Z,3.86
2019-04-21T03:35:53.459Z,3.99
2019-04-21T03:37:49.364Z,3.88
2019-04-21T03:40:16.733Z,3.77
2019-04-21T03:42:52.999Z,3.70
2019-04-21T03:45:34.830Z,3.77
2019-04-21T03:47:53.572Z,3.68
2019-04-21T03:50:30.380Z,3.75
2019-04-21T03:53:09.683Z,3.54
2019-04-21T04:06:29.548Z,3.32
2019-04-21T04:09:26.449Z,3.13
2019-04-21T04:16:50.444Z,3.29
2019-04-21T04:19:35.738Z,3.27
2019-04-21T04:24:28.504Z,3.16
2019-04-21T04:27:02.371Z,3.33
2019-04-21T04:29:24.117Z,3.29
2019-04-21T04:31:50.926Z,3.44
2019-04-21T04:34:29.170Z,3.56
2019-04-21T04:37:12.379Z,3.45
2019-04-21T04:45:08.201Z,3.50
2019-04-21T04:47:24.371Z,3.50
2019-04-21T04:49:53.347Z,3.43
2019-04-21T04:52:32.563Z,3.41
2019-04-21T04:57:39.599Z,3.42
2019-04-21T05:00:15.564Z,3.33
2019-04-21T05:07:46.155Z,4.14
2019-04-21T05:10:27.585Z,4.53
2019-04-21T05:12:35.775Z,4.82
2019-04-21T05:15:16.191Z,5.64
2019-04-21T05:17:48.250Z,6.48
2019-04-21T05:22:42.258Z,9.39
2019-04-21T05:25:06.968Z,10.24
2019-04-21T05:27:40.997Z,10.59
2019-04-21T05:33:27.285Z,11.39
2019-04-21T05:36:10.904Z,11.77
2019-04-21T05:38:57.031Z,12.23
2019-04-21T05:41:23.206Z,12.97
2019-04-21T05:44:06.595Z,13.54
2019-04-21T05:46:35.565Z,13.91
2019-04-21T05:49:10.857Z,14.29
2019-04-21T05:51:55.619Z,14.62
2019-04-21T05:54:39.479Z,15.25
2019-04-21T05:57:05.767Z,14.60
2019-04-21T05:59:37.645Z,14.84
2019-04-21T06:02:19.147Z,15.85
2019-04-21T06:05:07.202Z,16.39
2019-04-21T06:07:18.848Z,16.11
2019-04-21T06:09:51.323Z,16.03
2019-04-21T06:12:14.646Z,16.16
2019-04-21T06:17:27.863Z,16.34
2019-04-21T06:19:57.294Z,16.46
2019-04-21T06:22:22.154Z,16.71
2019-04-21T06:25:21.075Z,17.37
2019-04-21T06:27:32.736Z,17.31
2019-04-21T06:30:10.618Z,17.35
2019-04-21T06:35:35.479Z,17.82
2019-04-21T06:37:49.125Z,17.70
2019-04-21T06:40:28.744Z,17.73
2019-04-21T06:43:11.044Z,18.63
2019-04-21T06:45:37.726Z,18.68
2019-04-21T06:48:04.241Z,19.04
2019-04-21T06:50:39.724Z,19.93
2019-04-21T06:53:06.463Z,20.20
2019-04-21T06:55:37.568Z,21.03
2019-04-21T06:58:10.108Z,21.52
2019-04-21T07:00:41.377Z,22.33
2019-04-21T07:05:49.032Z,22.83
2019-04-21T07:08:31.271Z,23.70
2019-04-21T07:10:52.033Z,23.67
2019-04-21T07:13:19.183Z,23.39
2019-04-21T07:15:53.288Z,24.19
2019-04-21T07:18:30.655Z,24.73
2019-04-21T07:20:53.158Z,24.66
2019-04-21T07:23:35.529Z,24.93
2019-04-21T07:25:57.902Z,24.04
2019-04-21T07:28:31.969Z,24.33
2019-04-21T07:31:12.988Z,24.75
2019-04-21T07:36:06.341Z,25.50
2019-04-21T07:38:33.126Z,26.36
2019-04-21T07:41:08.042Z,26.88
2019-04-21T07:43:34.361Z,27.36
2019-04-21T07:46:06.759Z,28.19
2019-04-21T07:48:49.526Z,28.83
2019-04-21T07:51:49.049Z,29.72
2019-04-21T07:54:17.180Z,29.45
2019-04-21T07:56:33.246Z,29.46
2019-04-21T07:59:21.039Z,29.78
2019-04-21T08:01:50.671Z,29.74
2019-04-21T08:04:42.662Z,30.50
2019-04-21T08:06:52.057Z,31.13
2019-04-21T08:09:27.517Z,31.51
2019-04-21T08:11:52.206Z,32.27
2019-04-21T08:14:31.767Z,33.05
2019-04-21T08:17:04.944Z,34.01
2019-04-21T08:19:32.519Z,34.06
2019-04-21T08:24:35.099Z,33.47
2019-04-21T08:27:11.059Z,34.31
2019-04-21T08:29:39.473Z,35.32
2019-04-21T08:32:39.133Z,34.68
2019-04-21T08:34:43.254Z,35.03
2019-04-21T08:37:12.623Z,36.16
2019-04-21T08:39:59.418Z,36.86
2019-04-21T08:42:21.596Z,35.64
2019-04-21T08:44:54.117Z,34.75
2019-04-21T08:47:25.572Z,35.56
2019-04-21T08:49:55.897Z,35.20
2019-04-21T08:52:37.699Z,35.60
2019-04-21T08:55:07.087Z,36.90
2019-04-21T08:57:56.794Z,36.00
2019-04-21T09:03:02.558Z,36.41
2019-04-21T09:05:31.258Z,36.02
2019-04-21T09:08:06.654Z,35.81
2019-04-21T09:10:35.637Z,33.80
2019-04-21T09:13:04.350Z,31.33
2019-04-21T09:15:34.964Z,30.88
2019-04-21T09:18:08.435Z,28.63
2019-04-21T09:20:47.358Z,29.53
2019-04-21T09:23:17.740Z,31.10
2019-04-21T09:25:55.414Z,30.12
2019-04-21T09:28:18.553Z,30.59
2019-04-21T09:30:39.529Z,29.23
2019-04-21T09:33:05.722Z,29.45
2019-04-21T09:35:42.847Z,29.71
2019-04-21T09:38:20.833Z,29.70
2019-04-21T09:40:45.461Z,27.42
2019-04-21T09:43:13.806Z,27.80
2019-04-21T09:45:45.229Z,27.29
2019-04-21T09:48:18.980Z,24.81
2019-04-21T09:50:48.067Z,25.44
2019-04-21T09:53:28.722Z,24.47
2019-04-21T09:55:55.919Z,23.91
2019-04-21T09:58:29.256Z,23.95
2019-04-21T10:01:06.164Z,23.54
2019-04-21T10:03:26.351Z,23.48
2019-04-21T10:05:56.440Z,23.57
2019-04-21T10:08:27.255Z,23.32
2019-04-21T10:11:03.261Z,23.32
2019-04-21T10:13:33.999Z,23.56
2019-04-21T10:16:34.859Z,23.31
2019-04-21T10:19:06.926Z,23.41
2019-04-21T10:21:38.082Z,23.26
2019-04-21T10:24:08.644Z,23.39
2019-04-21T10:26:38.652Z,23.14
2019-04-21T10:29:15.253Z,22.99
2019-04-21T10:31:40.780Z,23.00
2019-04-21T10:34:11.734Z,23.12
2019-04-21T10:36:42.869Z,23.26
2019-04-21T10:39:13.679Z,23.29
2019-04-21T10:41:43.958Z,23.35
2019-04-21T10:44:13.871Z,23.32
2019-04-21T10:46:46.618Z,23.50
2019-04-21T10:49:16.908Z,23.78
2019-04-21T10:51:46.986Z,24.42
2019-04-21T10:54:17.915Z,24.46
2019-04-21T10:56:49.134Z,24.53
2019-04-21T10:59:20.494Z,24.96
2019-04-21T11:01:50.711Z,25.05
2019-04-21T11:04:33.701Z,25.01
2019-04-21T11:07:10.772Z,25.06
2019-04-21T11:09:37.919Z,25.71
2019-04-21T11:12:08.294Z,26.34
2019-04-21T11:14:38.934Z,26.84
2019-04-21T11:17:10.176Z,26.66
2019-04-21T11:19:41.116Z,26.85
2019-04-21T11:22:11.114Z,27.44
2019-04-21T11:24:41.040Z,28.94
2019-04-21T11:27:11.022Z,28.10
2019-04-21T11:29:41.328Z,30.09
2019-04-21T11:32:12.684Z,30.79
2019-04-21T11:34:43.171Z,31.72
2019-04-21T11:37:14.862Z,30.90
2019-04-21T11:39:52.019Z,31.58
2019-04-21T11:42:23.726Z,29.93
2019-04-21T11:44:55.692Z,32.12
2019-04-21T11:47:32.208Z,32.75
2019-04-21T11:50:03.355Z,33.85
2019-04-21T11:52:34.754Z,32.78
2019-04-21T11:55:05.243Z,34.39
2019-04-21T11:57:40.136Z,32.21
2019-04-21T12:00:07.631Z,32.68
2019-04-21T12:02:39.501Z,31.20
2019-04-21T12:05:09.793Z,29.08
2019-04-21T12:07:40.911Z,30.37
2019-04-21T12:10:11.338Z,34.18
2019-04-21T12:12:41.491Z,34.61
2019-04-21T12:15:14.120Z,34.31
2019-04-21T12:17:44.036Z,32.74
2019-04-21T12:20:14.789Z,36.63
2019-04-21T12:22:45.349Z,36.54
2019-04-21T12:25:16.781Z,37.17
2019-04-21T12:27:47.835Z,36.27
2019-04-21T12:30:19.846Z,36.06
2019-04-21T12:32:58.112Z,33.95
2019-04-21T12:35:28.137Z,30.91
2019-04-21T12:37:58.494Z,28.58
2019-04-21T12:40:28.497Z,30.76
2019-04-21T12:42:58.821Z,29.64
2019-04-21T12:45:28.911Z,26.28
2019-04-21T12:48:00.050Z,25.55
2019-04-21T12:50:30.099Z,25.26
2019-04-21T12:53:00.196Z,24.75
2019-04-21T12:55:35.122Z,24.57
2019-04-21T12:58:03.405Z,25.31
2019-04-21T13:00:33.536Z,26.41
2019-04-21T13:03:03.688Z,28.59
2019-04-21T13:05:35.692Z,31.46
2019-04-21T13:08:07.077Z,32.43
2019-04-21T13:10:38.136Z,32.45
2019-04-21T13:13:08.209Z,32.89
2019-04-21T13:15:38.229Z,34.48
2019-04-21T13:18:08.337Z,34.58
2019-04-21T13:20:38.471Z,33.01
2019-04-21T13:23:08.451Z,32.79
2019-04-21T13:25:38.338Z,34.33
2019-04-21T13:28:08.462Z,36.53
2019-04-21T13:30:38.338Z,33.97
2019-04-21T13:33:09.155Z,32.32
2019-04-21T13:35:41.215Z,33.89
2019-04-21T13:38:20.015Z,34.82
2019-04-21T13:41:22.794Z,32.81
2019-04-21T13:43:41.183Z,33.14
2019-04-21T13:46:12.194Z,33.48
2019-04-21T13:48:42.592Z,33.95
2019-04-21T13:51:13.321Z,34.61
2019-04-21T13:53:45.861Z,35.38
2019-04-21T13:56:16.275Z,32.55
2019-04-21T13:58:46.411Z,32.32
2019-04-21T14:01:17.923Z,33.92
2019-04-21T14:03:49.086Z,33.40
2019-04-21T14:06:20.399Z,32.14
2019-04-21T14:08:52.398Z,31.02
2019-04-21T14:11:23.056Z,31.20
2019-04-21T14:13:54.394Z,31.29
2019-04-21T14:16:24.531Z,31.42
2019-04-21T14:18:55.195Z,31.74
2019-04-21T14:21:25.126Z,31.54
2019-04-21T14:23:56.385Z,31.53
2019-04-21T14:26:26.936Z,30.25
2019-04-21T14:28:56.922Z,28.69
2019-04-21T14:31:28.335Z,29.37
2019-04-21T14:33:59.664Z,29.69
2019-04-21T14:36:30.721Z,29.82
2019-04-21T14:39:02.837Z,30.32
2019-04-21T14:41:32.899Z,30.19
2019-04-21T14:44:02.966Z,29.58
2019-04-21T14:47:11.225Z,29.47
2019-04-21T14:50:00.257Z,29.66
2019-04-21T14:52:35.050Z,29.96
2019-04-21T14:55:16.641Z,29.62
2019-04-21T14:57:47.386Z,29.20
2019-04-21T15:00:21.069Z,28.61
2019-04-21T15:02:51.826Z,28.31
2019-04-21T15:05:21.846Z,29.30
2019-04-21T15:07:53.063Z,29.52
2019-04-21T15:10:26.097Z,30.44
2019-04-21T15:12:56.123Z,31.19
2019-04-21T15:15:26.190Z,30.42
2019-04-21T15:17:56.180Z,31.07
2019-04-21T15:20:26.894Z,31.03
2019-04-21T15:22:57.472Z,29.28
2019-04-21T15:25:27.936Z,28.54
2019-04-21T15:27:59.070Z,29.59
2019-04-21T15:30:29.080Z,29.93
2019-04-21T15:33:00.404Z,29.21
2019-04-21T15:35:31.035Z,30.05
2019-04-21T15:38:02.055Z,30.62
2019-04-21T15:40:41.884Z,30.15
2019-04-21T15:43:04.503Z,30.34
2019-04-21T15:45:34.961Z,29.22
2019-04-21T15:48:05.447Z,29.40
2019-04-21T15:50:35.749Z,30.42
2019-04-21T15:53:07.714Z,30.40
2019-04-21T15:55:46.955Z,29.83
2019-04-21T15:58:24.770Z,29.06
2019-04-21T16:01:02.784Z,29.28
2019-04-21T16:03:34.468Z,28.53
2019-04-21T16:06:05.641Z,28.50
2019-04-21T16:08:37.404Z,28.23
2019-04-21T16:11:10.830Z,28.83
2019-04-21T16:13:39.670Z,28.79
2019-04-21T16:16:10.514Z,28.85
2019-04-21T16:18:42.503Z,28.91
2019-04-21T16:21:13.847Z,29.04
2019-04-21T16:23:44.505Z,28.24
2019-04-21T16:26:14.983Z,27.89
2019-04-21T16:28:45.263Z,27.98
2019-04-21T16:31:16.333Z,28.32
2019-04-21T16:33:47.186Z,28.16
2019-04-21T16:36:18.334Z,28.55
2019-04-21T16:38:49.405Z,28.08
2019-04-21T16:41:20.313Z,27.29
2019-04-21T16:43:51.390Z,26.71
2019-04-21T16:46:21.299Z,26.66
2019-04-21T16:48:51.652Z,26.84
2019-04-21T16:51:22.227Z,26.14
2019-04-21T16:53:57.784Z,26.24
2019-04-21T16:56:35.878Z,25.89
2019-04-21T16:59:18.940Z,25.41
2019-04-21T17:01:48.992Z,25.12
2019-04-21T17:04:20.275Z,25.04
2019-04-21T17:06:51.265Z,25.30
2019-04-21T17:09:22.985Z,25.12
2019-04-21T17:11:58.046Z,24.91
2019-04-21T17:14:43.773Z,24.85
2019-04-21T17:17:17.856Z,24.70
2019-04-21T17:19:34.750Z,24.70
2019-04-21T17:22:01.756Z,24.38
2019-04-21T17:24:32.547Z,23.64
2019-04-21T17:27:02.947Z,23.42
2019-04-21T17:29:34.546Z,23.47
2019-04-21T17:32:07.693Z,23.56
2019-04-21T17:34:37.963Z,23.19
2019-04-21T17:37:08.827Z,23.24
2019-04-21T17:39:38.937Z,22.93
2019-04-21T17:42:18.370Z,22.69
2019-04-21T17:44:41.314Z,22.31
2019-04-21T17:47:22.505Z,22.00
2019-04-21T17:49:48.785Z,21.71
2019-04-21T17:52:42.976Z,21.37
2019-04-21T17:55:22.985Z,20.93
2019-04-21T17:58:05.115Z,20.43
2019-04-21T18:01:05.564Z,20.38
2019-04-21T18:03:28.131Z,20.14
2019-04-21T18:05:48.513Z,20.11
2019-04-21T18:08:23.462Z,20.10
2019-04-21T18:10:48.085Z,19.70
2019-04-21T18:13:08.591Z,19.52
2019-04-21T18:15:51.965Z,19.43
2019-04-21T18:18:08.432Z,19.52
2019-04-21T18:20:41.825Z,19.39
2019-04-21T18:23:35.139Z,19.07
2019-04-21T18:26:01.678Z,18.91
2019-04-21T18:28:26.357Z,18.91
2019-04-21T18:31:02.372Z,18.81
2019-04-21T18:33:37.053Z,18.81
2019-04-21T18:36:13.509Z,18.42
2019-04-21T18:39:19.768Z,17.98
2019-04-21T18:41:36.600Z,17.82
2019-04-21T18:44:33.242Z,17.58
2019-04-21T18:47:31.957Z,17.19
2019-04-21T18:49:43.709Z,17.01
2019-04-21T18:52:40.594Z,17.06
2019-04-21T18:55:09.431Z,16.83
2019-04-21T18:57:38.430Z,16.60
2019-04-21T18:59:59.567Z,16.43
2019-04-21T19:02:38.435Z,16.30
2019-04-21T19:05:09.905Z,16.28
2019-04-21T19:07:59.772Z,16.14
2019-04-21T19:10:33.181Z,16.06
2019-04-21T19:15:28.117Z,15.85
2019-04-21T19:20:34.881Z,15.48
2019-04-21T19:23:08.448Z,15.34
2019-04-21T19:25:41.261Z,15.29
2019-04-21T19:28:06.111Z,15.28
2019-04-21T19:30:53.809Z,15.33
2019-04-21T19:33:14.507Z,15.38
2019-04-21T19:35:32.223Z,15.01
2019-04-21T19:38:07.008Z,14.66
2019-04-21T19:40:51.870Z,14.49
2019-04-21T19:43:29.415Z,14.34
2019-04-21T19:45:56.337Z,14.32
2019-04-21T19:48:26.063Z,14.11
2019-04-21T19:51:01.317Z,13.97
2019-04-21T19:53:32.918Z,13.96
2019-04-21T19:55:45.746Z,14.24
2019-04-21T19:58:19.474Z,14.40
2019-04-21T20:00:50.842Z,14.26
2019-04-21T20:03:20.937Z,14.15
2019-04-21T20:06:00.393Z,14.02
2019-04-21T20:08:36.156Z,13.86
2019-04-21T20:11:18.162Z,13.70
2019-04-21T20:14:18.385Z,13.55
2019-04-21T20:16:19.182Z,13.34
2019-04-21T20:18:37.895Z,13.25
2019-04-21T20:21:01.933Z,13.16
2019-04-21T20:23:35.428Z,13.11
2019-04-21T20:26:06.213Z,13.11
2019-04-21T20:28:48.969Z,13.00
2019-04-21T20:31:23.608Z,12.78
2019-04-21T20:33:59.614Z,13.00
2019-04-21T20:36:33.111Z,13.10
2019-04-21T20:38:52.521Z,13.10
2019-04-21T20:41:27.008Z,12.69
2019-04-21T20:44:09.899Z,12.51
2019-04-21T20:46:36.731Z,12.38
2019-04-21T20:49:01.708Z,12.36
2019-04-21T20:51:37.593Z,12.19
2019-04-21T20:54:08.685Z,12.13
2019-04-21T20:56:43.899Z,11.99
2019-04-21T20:59:11.977Z,11.90
2019-04-21T21:01:47.781Z,11.90
2019-04-21T21:04:13.808Z,11.88
2019-04-21T21:06:47.203Z,11.76
2019-04-21T21:09:18.317Z,11.82
2019-04-21T21:12:11.457Z,11.87
2019-04-21T21:14:24.933Z,11.93
2019-04-21T21:17:03.269Z,11.91
2019-04-21T21:19:34.814Z,11.99
2019-04-21T21:21:57.609Z,12.27
2019-04-21T21:24:36.366Z,12.38
2019-04-21T21:27:09.122Z,12.23
2019-04-21T21:29:33.505Z,12.10
2019-04-21T21:32:16.880Z,11.94
2019-04-21T21:34:47.267Z,11.85
2019-04-21T21:37:21.901Z,11.75
2019-04-21T21:39:53.682Z,11.73
2019-04-21T21:42:02.818Z,11.88
2019-04-21T21:44:33.805Z,11.87
2019-04-21T21:47:17.242Z,11.92
2019-04-21T21:49:48.086Z,11.83
2019-04-21T21:52:16.878Z,11.81
2019-04-21T21:54:38.073Z,11.77
2019-04-21T21:57:08.307Z,11.83
2019-04-21T21:59:40.057Z,11.75
2019-04-21T22:02:17.222Z,11.71
2019-04-21T22:04:51.092Z,11.66
2019-04-21T22:07:17.830Z,11.62
2019-04-21T22:09:48.300Z,11.56
2019-04-21T22:12:18.360Z,11.48
2019-04-21T22:14:52.052Z,11.51
2019-04-21T22:17:36.905Z,11.50
2019-04-21T22:20:17.014Z,11.56
2019-04-21T22:22:39.016Z,11.48
2019-04-21T22:25:06.940Z,11.40
2019-04-21T22:27:27.835Z,11.29
2019-04-21T22:30:02.961Z,11.11
2019-04-21T22:32:31.468Z,11.18
2019-04-21T22:35:06.927Z,11.15
2019-04-21T22:37:45.094Z,11.07
2019-04-21T22:40:16.856Z,11.13
2019-04-21T22:42:47.356Z,10.95
2019-04-21T22:45:11.292Z,10.92
2019-04-21T22:47:42.876Z,10.85
2019-04-21T22:50:28.975Z,10.77
2019-04-21T22:53:04.146Z,10.94
2019-04-21T22:55:35.015Z,10.98
2019-04-21T22:58:03.894Z,10.82
2019-04-21T23:00:41.013Z,10.56
2019-04-21T23:03:12.994Z,10.27
2019-04-21T23:05:42.701Z,10.15
2019-04-21T23:08:11.050Z,10.06
2019-04-21T23:10:48.290Z,9.96
2019-04-21T23:13:19.883Z,9.98
2019-04-21T23:15:51.759Z,9.96
2019-04-21T23:18:37.419Z,10.02
2019-04-21T23:21:09.121Z,10.12
2019-04-21T23:23:48.330Z,10.04
2019-04-21T23:26:15.945Z,10.09
2019-04-21T23:28:49.070Z,9.98
2019-04-21T23:31:18.675Z,9.93
2019-04-21T23:33:31.443Z,10.06
2019-04-21T23:36:11.301Z,9.96
2019-04-21T23:38:41.702Z,9.60
2019-04-21T23:41:09.197Z,9.39
2019-04-21T23:43:38.928Z,9.11
2019-04-21T23:46:19.829Z,9.09
2019-04-21T23:49:02.420Z,9.09
2019-04-21T23:51:25.888Z,9.15
2019-04-21T23:53:45.161Z,9.21
2019-04-21T23:56:21.801Z,9.29
2019-04-21T23:58:54.717Z,9.35
